الصفحة الرئيسية
METAR-TAF:

METAR-TAF

مطار :

أورسك, روسيا

دائرة عرض: 51-04-18N, خط طول: 058-35-48E, ارتفاع: 277 متر

مراقبة الطقس الحالي

تاريخ ووقت الإصدار 36 دقيقة قبل الساعة 09:00UTC
ريح 19 عقدة من الغرب
درجة الحرارة 14°درجة مئوية
الرطوبة 67%
ضغط 1013 hPa
الرؤية 10 كم أو أكثر
الغيوم لا تقل 1500 م ولا وجود لمزنة ركامية السحاب الأسود

METAR: UWOR 170900Z 27010MPS CAVOK 14/08 Q1013 R25/CLRD65 NOSIG RMK QFE736/0982

زمن: 14:36 (09:36 UTC)

توقعات

تاريخ ووقت الإصدار 1ساعة و 36 دقيقة قبل الساعة 08:00UTC
التوقعات صالحة من17 الساعة 09 UTC إلى 17 الساعة 18 UTC
ريح 17 عقدة من الغرب تتزايد حتى 27 عقدة
الرؤية 10 كم أو أكثر
غيوم مفككة على ارتفاع 1100 قدم
غيوم مفككة على ارتفاع 2000 قدم, مزنة ركامية.
مؤقت
من 17 الساعة 09 UTC إلى 17 الساعة 18 UTC
ريح 25 عقدة من الغرب
الرؤية: 3100 متر
غيوم متفرقة على ارتفاع 700 قدم
غيوم مفككة على ارتفاع 1500 قدم, مزنة ركامية.
زخات من الأمطار الخفيفة

TAF: UWOR 170800Z 1709/1718 27009G14MPS 9999 BKN011 BKN020CB TEMPO 1709/1718 28013MPS 3100 -SHRA SCT007 BKN015CB

أرصاد الطقس والتوقعات من أكثر من 4000 مطار (تقارير الطقس للمطار METAR والتنبؤ بالطقس بالمطارTAF).

المحطات المتاحة هي النقط الصفراء والحمراء على الخريطة.

حرك المؤشر فوق النقطة لمعرفة اسم المحطة.

ثم انقر لمعرفة أرصاد وتوقعات الطقس.

لتغيير الخارطة: اضغط على الأزرار الخضراء مع رمز الصليب الأسود للتكبير. على الزر الأخضر مع شرطة للتصغير، أو على الأسهم الخضراء للخرائط المجاورة.


METAR-TAF: